createdAt,value
2023-01-19T08:01:17.810Z,26.52
2023-01-19T08:01:27.821Z,5.14
2023-01-19T08:01:38.042Z,5.52
2023-01-19T08:01:47.971Z,5.97
2023-01-19T08:01:58.351Z,6.20
2023-01-19T08:02:08.173Z,6.44
2023-01-19T08:02:18.149Z,5.72
2023-01-19T08:02:28.028Z,5.70
2023-01-19T08:02:38.096Z,5.51
2023-01-19T08:02:47.983Z,5.35
2023-01-19T08:02:58.205Z,4.86
2023-01-19T08:03:07.984Z,5.04
2023-01-19T08:03:17.971Z,4.79
2023-01-19T08:03:27.961Z,4.64
2023-01-19T08:03:37.936Z,5.72
2023-01-19T08:03:47.896Z,5.66
2023-01-19T08:03:57.927Z,6.12
2023-01-19T08:04:07.870Z,6.17
2023-01-19T08:04:17.836Z,5.89
2023-01-19T08:04:27.809Z,6.03
2023-01-19T08:04:37.808Z,6.61
2023-01-19T08:04:47.874Z,5.99
2023-01-19T08:04:57.723Z,6.00
2023-01-19T08:05:07.691Z,5.99
2023-01-19T08:05:17.705Z,5.95
2023-01-19T08:05:27.637Z,6.31
2023-01-19T08:05:37.571Z,6.24
2023-01-19T08:05:47.527Z,6.37
2023-01-19T08:05:57.570Z,6.23
2023-01-19T08:06:07.481Z,5.76
2023-01-19T08:06:17.467Z,5.48
2023-01-19T08:06:27.447Z,6.55
2023-01-19T08:06:37.409Z,6.19
2023-01-19T08:06:47.438Z,5.17
2023-01-19T08:06:57.350Z,5.09
2023-01-19T08:07:07.285Z,4.91
2023-01-19T08:07:17.292Z,4.80
2023-01-19T08:07:27.230Z,5.68
2023-01-19T08:07:37.169Z,5.79
2023-01-19T08:07:47.264Z,5.55
2023-01-19T08:07:57.140Z,5.35
2023-01-19T08:08:07.073Z,5.00
2023-01-19T08:08:17.096Z,4.50
2023-01-19T08:08:27.041Z,4.80
2023-01-19T08:08:37.085Z,4.86
2023-01-19T08:08:47.002Z,5.11
2023-01-19T08:08:56.931Z,4.76
2023-01-19T08:09:06.978Z,4.51
2023-01-19T08:09:16.873Z,4.80
2023-01-19T08:09:26.846Z,4.69
2023-01-19T08:09:36.845Z,4.77
2023-01-19T08:09:46.820Z,5.02
2023-01-19T08:09:56.757Z,5.36
2023-01-19T08:10:06.740Z,5.63
2023-01-19T08:10:16.708Z,5.69
2023-01-19T08:10:26.709Z,5.44
2023-01-19T08:10:36.677Z,5.87
2023-01-19T08:10:46.619Z,5.52
2023-01-19T08:10:56.654Z,5.68
2023-01-19T08:11:06.582Z,5.39
2023-01-19T08:11:16.519Z,4.81
2023-01-19T08:11:26.471Z,5.25
2023-01-19T08:11:36.477Z,5.58
2023-01-19T08:11:46.427Z,5.27
2023-01-19T08:11:56.409Z,4.71
2023-01-19T08:12:06.374Z,5.03
2023-01-19T08:12:16.347Z,5.18
2023-01-19T08:12:26.305Z,16.35
2023-01-19T08:12:36.279Z,16.72
2023-01-19T08:12:46.290Z,19.51
2023-01-19T08:12:56.319Z,24.10
2023-01-19T08:13:06.210Z,26.52
2023-01-19T08:13:16.193Z,22.87
2023-01-19T08:13:26.096Z,19.36
2023-01-19T08:13:36.087Z,18.86
2023-01-19T08:13:46.064Z,16.50
2023-01-19T08:13:56.046Z,13.62
2023-01-19T08:14:07.933Z,14.74
2023-01-19T08:14:15.934Z,29.01
2023-01-19T08:14:25.890Z,58.43
2023-01-19T08:14:35.882Z,105.60
2023-01-19T08:14:45.817Z,165.69
2023-01-19T08:14:55.846Z,267.44
2023-01-19T08:15:05.707Z,449.65
2023-01-19T08:15:15.683Z,355.44
2023-01-19T08:15:25.720Z,308.43
2023-01-19T08:15:35.624Z,259.27
2023-01-19T08:15:45.571Z,272.01
2023-01-19T08:15:55.536Z,510.87
2023-01-19T08:16:05.450Z,328.84
2023-01-19T08:16:15.422Z,265.74
2023-01-19T08:16:25.346Z,176.42
2023-01-19T08:16:35.308Z,161.20
2023-01-19T08:16:45.266Z,138.88
2023-01-19T08:16:55.214Z,127.07
2023-01-19T08:17:05.161Z,113.15
2023-01-19T08:17:15.126Z,97.75
2023-01-19T08:17:25.080Z,85.17
2023-01-19T08:17:35.006Z,71.59
2023-01-19T08:17:45.049Z,74.93
2023-01-19T08:17:54.952Z,75.27
2023-01-19T08:18:04.992Z,69.84
2023-01-19T08:18:14.828Z,66.40
2023-01-19T08:18:24.820Z,59.78
2023-01-19T08:18:34.793Z,46.32
2023-01-19T08:18:44.731Z,35.32
2023-01-19T08:18:54.718Z,29.39
2023-01-19T08:19:04.704Z,26.62
2023-01-19T08:19:14.630Z,27.99
2023-01-19T08:19:24.618Z,27.77
2023-01-19T08:19:34.553Z,28.95
2023-01-19T08:19:44.524Z,29.18
2023-01-19T08:19:54.493Z,33.48
2023-01-19T08:20:04.451Z,34.18
2023-01-19T08:20:14.444Z,31.74
2023-01-19T08:20:24.418Z,26.67
2023-01-19T08:20:34.397Z,25.87
2023-01-19T08:20:44.329Z,24.24
2023-01-19T08:20:54.263Z,25.49
2023-01-19T08:21:04.298Z,26.92
2023-01-19T08:21:14.265Z,23.61
2023-01-19T08:21:24.191Z,20.67
2023-01-19T08:21:34.184Z,19.70
2023-01-19T08:21:44.122Z,19.03
2023-01-19T08:21:54.079Z,16.58
2023-01-19T08:22:04.056Z,14.58
2023-01-19T08:22:14.026Z,13.77
2023-01-19T08:22:23.991Z,13.79
2023-01-19T08:22:34.061Z,12.80
2023-01-19T08:22:44.038Z,12.09
2023-01-19T08:22:53.976Z,11.80
2023-01-19T08:23:04.507Z,11.92
2023-01-19T08:23:13.959Z,12.29
2023-01-19T08:23:23.842Z,12.28
2023-01-19T08:23:33.798Z,10.72
2023-01-19T08:23:43.812Z,10.24
2023-01-19T08:23:53.730Z,10.30
2023-01-19T08:24:03.741Z,8.92
2023-01-19T08:24:13.664Z,8.17
2023-01-19T08:24:23.568Z,7.82
2023-01-19T08:24:33.533Z,7.78
2023-01-19T08:24:43.501Z,7.22
2023-01-19T08:24:53.422Z,7.47
2023-01-19T08:25:03.421Z,7.82
2023-01-19T08:25:13.391Z,7.14
2023-01-19T08:25:40.697Z,22.53
2023-01-19T08:25:50.702Z,4.93
2023-01-19T08:26:00.900Z,5.19
2023-01-19T08:26:10.905Z,5.08
2023-01-19T08:26:20.908Z,4.61
2023-01-19T08:26:30.951Z,4.37
2023-01-19T08:26:40.881Z,4.29
2023-01-19T08:26:50.911Z,4.04
2023-01-19T08:27:00.909Z,4.30
2023-01-19T08:27:11.468Z,4.87
2023-01-19T08:27:20.913Z,4.97
2023-01-19T08:27:30.878Z,4.99
2023-01-19T08:27:40.895Z,4.87
2023-01-19T08:27:50.921Z,4.95
2023-01-19T08:28:00.881Z,5.35
2023-01-19T08:28:10.894Z,4.92
2023-01-19T08:28:20.888Z,4.78
2023-01-19T08:28:30.969Z,4.97
2023-01-19T08:28:40.894Z,5.56
2023-01-19T08:28:50.866Z,5.88
2023-01-19T08:29:00.865Z,6.54
2023-01-19T08:29:10.865Z,6.03
2023-01-19T08:29:20.931Z,5.41
2023-01-19T08:29:30.892Z,5.51
2023-01-19T08:29:40.897Z,5.76
2023-01-19T08:29:50.920Z,5.98
2023-01-19T08:30:00.899Z,5.97
2023-01-19T08:30:10.871Z,6.01
2023-01-19T08:30:20.881Z,6.02
2023-01-19T08:30:30.872Z,5.89
2023-01-19T08:30:41.024Z,5.88
2023-01-19T08:30:50.973Z,6.38
2023-01-19T08:31:11.085Z,6.38
2023-01-19T08:31:20.456Z,6.44
2023-01-19T08:31:24.694Z,6.56
2023-01-19T08:31:31.032Z,6.51
2023-01-19T08:31:40.917Z,7.07
2023-01-19T08:31:50.938Z,7.47
2023-01-19T08:32:00.917Z,7.56
2023-01-19T08:32:10.994Z,7.23
2023-01-19T08:32:20.933Z,6.77
2023-01-19T08:32:30.921Z,6.40
2023-01-19T08:32:40.881Z,6.40
2023-01-19T08:32:50.856Z,9.35
2023-01-19T08:33:01.243Z,8.42
2023-01-19T08:33:11.115Z,7.98
2023-01-19T08:33:21.169Z,6.98
2023-01-19T08:33:31.236Z,6.09
2023-01-19T08:33:41.122Z,5.62
2023-01-19T08:33:51.176Z,5.31
2023-01-19T08:34:01.106Z,5.52
2023-01-19T08:34:11.159Z,5.97
2023-01-19T08:34:21.082Z,6.30
2023-01-19T08:34:31.128Z,6.25
2023-01-19T08:34:41.143Z,6.22
2023-01-19T08:34:51.100Z,6.68
2023-01-19T08:35:01.149Z,7.57
2023-01-19T08:35:11.146Z,8.55
2023-01-19T08:35:21.105Z,8.44
2023-01-19T08:35:31.122Z,8.49
2023-01-19T08:35:41.137Z,8.33
2023-01-19T08:35:51.094Z,8.38
2023-01-19T08:36:01.204Z,9.25
2023-01-19T08:36:11.110Z,10.07
2023-01-19T08:36:21.085Z,9.24
2023-01-19T08:36:31.118Z,9.11
2023-01-19T08:36:41.302Z,8.89
2023-01-19T08:36:51.115Z,8.99
2023-01-19T08:37:01.122Z,8.56
2023-01-19T08:37:11.152Z,8.24
2023-01-19T08:37:21.105Z,8.90
2023-01-19T08:37:32.692Z,8.47
2023-01-19T08:37:41.092Z,8.38
2023-01-19T08:37:51.118Z,8.21
2023-01-19T08:38:01.154Z,8.34
2023-01-19T08:38:11.182Z,7.91
2023-01-19T08:38:21.205Z,7.35
2023-01-19T08:38:31.137Z,7.75
2023-01-19T08:38:41.193Z,7.97
2023-01-19T08:38:51.108Z,8.43
2023-01-19T08:39:01.131Z,8.32
2023-01-19T08:39:11.076Z,8.14
2023-01-19T08:39:21.108Z,9.02
2023-01-19T08:39:31.134Z,8.76
2023-01-19T08:39:41.107Z,7.65
2023-01-19T08:39:51.117Z,7.84
2023-01-19T08:40:01.555Z,8.55
2023-01-19T08:40:11.278Z,8.97
2023-01-19T08:40:21.226Z,8.01
2023-01-19T08:40:31.242Z,7.37
2023-01-19T08:40:41.257Z,7.51
2023-01-19T08:40:51.246Z,6.95
2023-01-19T08:41:01.254Z,6.93
2023-01-19T08:41:11.210Z,7.66
2023-01-19T08:41:21.272Z,6.96
2023-01-19T08:41:31.257Z,6.49
2023-01-19T08:41:41.205Z,6.00
2023-01-19T08:41:51.225Z,6.07
2023-01-19T08:42:01.254Z,6.29
2023-01-19T08:42:11.215Z,6.41
2023-01-19T08:42:21.236Z,6.55
2023-01-19T08:42:31.247Z,6.60
2023-01-19T08:42:41.223Z,6.75
2023-01-19T08:42:51.238Z,7.03
2023-01-19T08:43:01.731Z,7.76
2023-01-19T08:43:11.199Z,8.38
2023-01-19T08:43:21.237Z,8.51
2023-01-19T08:43:31.281Z,8.36
2023-01-19T08:43:41.304Z,7.15
2023-01-19T08:43:51.257Z,7.23
2023-01-19T08:44:01.231Z,6.93
2023-01-19T08:44:11.199Z,7.14
2023-01-19T08:44:21.181Z,7.52
2023-01-19T08:44:31.197Z,9.74
2023-01-19T08:44:49.656Z,8.26
2023-01-19T08:44:58.151Z,7.17
2023-01-19T08:45:02.348Z,6.64
2023-01-19T08:45:11.207Z,6.20
2023-01-19T08:45:21.245Z,6.04
2023-01-19T08:45:31.206Z,7.14
2023-01-19T08:45:41.231Z,7.78
2023-01-19T08:45:51.280Z,8.11
2023-01-19T08:46:01.307Z,8.36
2023-01-19T08:46:11.292Z,8.36
2023-01-19T08:46:21.317Z,8.39
2023-01-19T08:46:31.248Z,7.80
2023-01-19T08:46:41.292Z,7.43
2023-01-19T08:46:51.192Z,6.89
2023-01-19T08:47:01.195Z,6.53
2023-01-19T08:47:11.258Z,6.45
2023-01-19T08:47:21.223Z,6.17
2023-01-19T08:47:31.212Z,6.32
2023-01-19T08:47:41.296Z,6.35
2023-01-19T08:47:51.233Z,6.46
